Terminal Aerodrome Forecast
Issued by NWS Boston, MA

Home | Current Version | Previous Version | Text Only | Print | Product List | Glossary On
Versions: 1 2 3 4 5 6 7 8 9 10 11 12 13 14 15 16 17 18 19 20 21 22 23 24 25
000
FTUS41 KBOX 292344 AAC
TAFBDL
TAF AMD
KBDL 292344Z 3000/0106 33012KT P6SM SCT250
     FM300400 35006KT P6SM SCT080
     FM301100 02006KT P6SM SCT200
     FM302000 16007KT P6SM BKN050
     FM010500 15006KT P6SM VCSH OVC025=

USA.gov is the U.S. government's official web portal to all federal, state and local government web resources and services.